sensor_id;sensor_type;location;lat;lon;timestamp;pressure;altitude;pressure_sealevel;temperature;humidity
75008;BME280;63554;48.940;12.050;2023-02-28T00:00:15;98128.69;;;-3.19;73.47
75008;BME280;63554;48.940;12.050;2023-02-28T00:04:17;98111.56;;;-3.26;73.57
75008;BME280;63554;48.940;12.050;2023-02-28T00:08:21;98118.66;;;-3.26;73.66
75008;BME280;63554;48.940;12.050;2023-02-28T00:12:24;98114.09;;;-3.24;73.99
75008;BME280;63554;48.940;12.050;2023-02-28T00:16:27;98122.13;;;-3.26;74.09
75008;BME280;63554;48.940;12.050;2023-02-28T00:20:30;98116.13;;;-3.28;74.00
75008;BME280;63554;48.940;12.050;2023-02-28T00:24:34;98109.38;;;-3.32;73.86
75008;BME280;63554;48.940;12.050;2023-02-28T00:28:37;98105.78;;;-3.31;73.82
75008;BME280;63554;48.940;12.050;2023-02-28T00:32:40;98106.97;;;-3.35;73.84
75008;BME280;63554;48.940;12.050;2023-02-28T00:36:42;98095.03;;;-3.41;74.07
75008;BME280;63554;48.940;12.050;2023-02-28T00:40:48;98108.16;;;-3.39;73.77
75008;BME280;63554;48.940;12.050;2023-02-28T00:44:51;98105.50;;;-3.39;73.98
75008;BME280;63554;48.940;12.050;2023-02-28T00:48:54;98100.44;;;-3.42;73.99
75008;BME280;63554;48.940;12.050;2023-02-28T00:52:56;98084.75;;;-3.45;73.41
75008;BME280;63554;48.940;12.050;2023-02-28T00:57:00;98086.06;;;-3.51;73.80
75008;BME280;63554;48.940;12.050;2023-02-28T01:01:03;98097.63;;;-3.52;74.32
75008;BME280;63554;48.940;12.050;2023-02-28T01:05:07;98090.75;;;-3.54;74.25
75008;BME280;63554;48.940;12.050;2023-02-28T01:09:10;98075.09;;;-3.58;74.11
75008;BME280;63554;48.940;12.050;2023-02-28T01:13:15;98076.91;;;-3.58;74.13
75008;BME280;63554;48.940;12.050;2023-02-28T01:17:18;98070.28;;;-3.64;74.17
75008;BME280;63554;48.940;12.050;2023-02-28T01:21:21;98078.94;;;-3.62;75.06
75008;BME280;63554;48.940;12.050;2023-02-28T01:25:24;98078.19;;;-3.64;74.95
75008;BME280;63554;48.940;12.050;2023-02-28T01:29:28;98078.66;;;-3.70;75.73
75008;BME280;63554;48.940;12.050;2023-02-28T01:33:31;98079.94;;;-3.75;75.30
75008;BME280;63554;48.940;12.050;2023-02-28T01:37:33;98083.66;;;-3.78;75.45
75008;BME280;63554;48.940;12.050;2023-02-28T01:41:36;98066.94;;;-3.79;76.04
75008;BME280;63554;48.940;12.050;2023-02-28T01:45:40;98067.91;;;-3.80;75.77
75008;BME280;63554;48.940;12.050;2023-02-28T01:49:43;98066.09;;;-3.79;76.91
75008;BME280;63554;48.940;12.050;2023-02-28T01:53:49;98055.41;;;-3.78;76.01
75008;BME280;63554;48.940;12.050;2023-02-28T01:57:55;98047.81;;;-3.82;76.83
75008;BME280;63554;48.940;12.050;2023-02-28T02:02:00;98072.22;;;-3.79;76.63
75008;BME280;63554;48.940;12.050;2023-02-28T02:06:03;98063.34;;;-3.78;77.29
75008;BME280;63554;48.940;12.050;2023-02-28T02:10:12;98055.00;;;-3.84;76.75
75008;BME280;63554;48.940;12.050;2023-02-28T02:14:30;98057.53;;;-3.83;77.64
75008;BME280;63554;48.940;12.050;2023-02-28T02:18:43;98058.97;;;-3.90;78.05
75008;BME280;63554;48.940;12.050;2023-02-28T02:23:10;98064.97;;;-3.88;77.42
75008;BME280;63554;48.940;12.050;2023-02-28T02:27:22;98059.91;;;-3.91;77.78
75008;BME280;63554;48.940;12.050;2023-02-28T02:31:37;98061.91;;;-3.94;78.01
75008;BME280;63554;48.940;12.050;2023-02-28T02:35:52;98052.41;;;-3.97;78.55
75008;BME280;63554;48.940;12.050;2023-02-28T02:40:02;98058.44;;;-3.95;78.68
75008;BME280;63554;48.940;12.050;2023-02-28T02:44:11;98062.53;;;-3.91;78.05
75008;BME280;63554;48.940;12.050;2023-02-28T02:48:20;98063.00;;;-3.97;77.83
75008;BME280;63554;48.940;12.050;2023-02-28T02:52:34;98068.28;;;-3.97;78.18
75008;BME280;63554;48.940;12.050;2023-02-28T02:56:38;98061.53;;;-4.01;78.35
75008;BME280;63554;48.940;12.050;2023-02-28T03:00:47;98067.75;;;-4.02;78.88
75008;BME280;63554;48.940;12.050;2023-02-28T03:04:52;98059.81;;;-4.02;78.61
75008;BME280;63554;48.940;12.050;2023-02-28T03:08:57;98065.25;;;-4.04;78.63
75008;BME280;63554;48.940;12.050;2023-02-28T03:13:23;98076.56;;;-4.02;78.54
75008;BME280;63554;48.940;12.050;2023-02-28T03:17:50;98061.63;;;-4.03;78.35
75008;BME280;63554;48.940;12.050;2023-02-28T03:22:04;98068.00;;;-4.05;78.70
75008;BME280;63554;48.940;12.050;2023-02-28T03:26:17;98062.59;;;-4.04;79.06
75008;BME280;63554;48.940;12.050;2023-02-28T03:30:26;98066.41;;;-4.08;79.11
75008;BME280;63554;48.940;12.050;2023-02-28T03:34:33;98064.81;;;-4.10;78.85
75008;BME280;63554;48.940;12.050;2023-02-28T03:38:39;98067.25;;;-4.07;78.75
75008;BME280;63554;48.940;12.050;2023-02-28T03:42:48;98062.63;;;-4.17;79.21
75008;BME280;63554;48.940;12.050;2023-02-28T03:46:58;98080.94;;;-4.13;79.03
75008;BME280;63554;48.940;12.050;2023-02-28T03:51:05;98066.44;;;-4.21;79.18
75008;BME280;63554;48.940;12.050;2023-02-28T03:55:13;98067.09;;;-4.17;79.37
75008;BME280;63554;48.940;12.050;2023-02-28T03:59:22;98070.66;;;-4.18;79.85
75008;BME280;63554;48.940;12.050;2023-02-28T04:03:28;98060.94;;;-4.18;79.63
75008;BME280;63554;48.940;12.050;2023-02-28T04:07:31;98076.78;;;-4.18;79.26
75008;BME280;63554;48.940;12.050;2023-02-28T04:11:35;98070.56;;;-4.17;79.85
75008;BME280;63554;48.940;12.050;2023-02-28T04:15:40;98075.75;;;-4.15;79.93
75008;BME280;63554;48.940;12.050;2023-02-28T04:19:43;98069.94;;;-4.20;79.45
75008;BME280;63554;48.940;12.050;2023-02-28T04:23:46;98073.53;;;-4.21;79.03
75008;BME280;63554;48.940;12.050;2023-02-28T04:27:48;98064.75;;;-4.22;79.45
75008;BME280;63554;48.940;12.050;2023-02-28T04:31:53;98079.75;;;-4.22;79.70
75008;BME280;63554;48.940;12.050;2023-02-28T04:36:00;98070.16;;;-4.23;79.48
75008;BME280;63554;48.940;12.050;2023-02-28T04:40:04;98076.38;;;-4.24;79.55
75008;BME280;63554;48.940;12.050;2023-02-28T04:44:07;98071.09;;;-4.24;79.94
75008;BME280;63554;48.940;12.050;2023-02-28T04:48:11;98083.25;;;-4.22;79.47
75008;BME280;63554;48.940;12.050;2023-02-28T04:52:14;98065.91;;;-4.26;80.06
75008;BME280;63554;48.940;12.050;2023-02-28T04:56:17;98079.88;;;-4.24;79.55
75008;BME280;63554;48.940;12.050;2023-02-28T05:00:20;98073.09;;;-3.78;88.32
75008;BME280;63554;48.940;12.050;2023-02-28T05:04:25;98073.28;;;-3.57;83.31
75008;BME280;63554;48.940;12.050;2023-02-28T05:08:27;98075.94;;;-3.81;79.21
75008;BME280;63554;48.940;12.050;2023-02-28T05:12:31;98089.44;;;-3.97;78.86
75008;BME280;63554;48.940;12.050;2023-02-28T05:16:34;98090.19;;;-4.08;79.38
75008;BME280;63554;48.940;12.050;2023-02-28T05:20:38;98089.16;;;-4.18;79.49
75008;BME280;63554;48.940;12.050;2023-02-28T05:24:40;98080.50;;;-4.20;79.21
75008;BME280;63554;48.940;12.050;2023-02-28T05:28:43;98088.31;;;-4.19;79.75
75008;BME280;63554;48.940;12.050;2023-02-28T05:32:49;98091.31;;;-4.23;79.55
75008;BME280;63554;48.940;12.050;2023-02-28T05:36:54;98089.50;;;-4.23;79.80
75008;BME280;63554;48.940;12.050;2023-02-28T05:40:56;98086.13;;;-4.25;79.70
75008;BME280;63554;48.940;12.050;2023-02-28T05:44:59;98088.53;;;-4.22;79.56
75008;BME280;63554;48.940;12.050;2023-02-28T05:49:02;98081.66;;;-4.24;79.92
75008;BME280;63554;48.940;12.050;2023-02-28T05:53:06;98085.69;;;-4.19;79.59
75008;BME280;63554;48.940;12.050;2023-02-28T05:57:09;98098.78;;;-4.17;78.98
75008;BME280;63554;48.940;12.050;2023-02-28T06:01:32;98095.50;;;-4.21;79.47
75008;BME280;63554;48.940;12.050;2023-02-28T06:05:35;98101.75;;;-4.22;79.43
75008;BME280;63554;48.940;12.050;2023-02-28T06:09:41;98096.69;;;-4.25;79.51
75008;BME280;63554;48.940;12.050;2023-02-28T06:13:43;98111.28;;;-4.19;79.28
75008;BME280;63554;48.940;12.050;2023-02-28T06:17:47;98104.06;;;-4.17;79.55
75008;BME280;63554;48.940;12.050;2023-02-28T06:21:50;98098.06;;;-4.19;79.04
75008;BME280;63554;48.940;12.050;2023-02-28T06:25:55;98104.91;;;-4.17;78.75
75008;BME280;63554;48.940;12.050;2023-02-28T06:30:00;98120.13;;;-4.07;79.02
75008;BME280;63554;48.940;12.050;2023-02-28T06:34:03;98121.59;;;-4.03;78.72
75008;BME280;63554;48.940;12.050;2023-02-28T06:38:05;98122.31;;;-4.01;78.31
75008;BME280;63554;48.940;12.050;2023-02-28T06:42:09;98124.31;;;-3.92;78.60
75008;BME280;63554;48.940;12.050;2023-02-28T06:46:13;98126.38;;;-3.84;78.63
75008;BME280;63554;48.940;12.050;2023-02-28T06:50:17;98130.28;;;-3.77;78.35
75008;BME280;63554;48.940;12.050;2023-02-28T06:54:22;98133.13;;;-3.67;77.25
75008;BME280;63554;48.940;12.050;2023-02-28T06:58:26;98130.19;;;-3.51;77.91
75008;BME280;63554;48.940;12.050;2023-02-28T07:02:29;98122.69;;;-3.33;79.73
75008;BME280;63554;48.940;12.050;2023-02-28T07:06:33;98132.69;;;-3.13;77.14
75008;BME280;63554;48.940;12.050;2023-02-28T07:10:37;98130.34;;;-2.93;74.29
75008;BME280;63554;48.940;12.050;2023-02-28T07:14:41;98124.59;;;-2.76;73.57
75008;BME280;63554;48.940;12.050;2023-02-28T07:18:43;98135.59;;;-2.58;72.21
75008;BME280;63554;48.940;12.050;2023-02-28T07:22:46;98130.47;;;-2.37;72.50
75008;BME280;63554;48.940;12.050;2023-02-28T07:26:56;98129.97;;;-2.20;71.67
75008;BME280;63554;48.940;12.050;2023-02-28T07:31:04;98137.94;;;-1.97;70.14
75008;BME280;63554;48.940;12.050;2023-02-28T07:35:08;98129.34;;;-1.78;69.87
75008;BME280;63554;48.940;12.050;2023-02-28T07:39:10;98132.13;;;-1.68;67.78
75008;BME280;63554;48.940;12.050;2023-02-28T07:43:14;98136.53;;;-1.46;67.47
75008;BME280;63554;48.940;12.050;2023-02-28T07:47:18;98139.59;;;-1.30;66.92
75008;BME280;63554;48.940;12.050;2023-02-28T07:51:22;98145.56;;;-1.05;67.26
75008;BME280;63554;48.940;12.050;2023-02-28T07:55:24;98141.25;;;-0.85;65.98
75008;BME280;63554;48.940;12.050;2023-02-28T07:59:27;98139.13;;;-0.70;65.14
75008;BME280;63554;48.940;12.050;2023-02-28T08:03:34;98137.25;;;-0.58;63.53
75008;BME280;63554;48.940;12.050;2023-02-28T08:07:37;98144.22;;;-0.36;63.83
75008;BME280;63554;48.940;12.050;2023-02-28T08:11:41;98146.50;;;-0.32;61.63
75008;BME280;63554;48.940;12.050;2023-02-28T08:15:44;98145.03;;;-0.15;60.46
75008;BME280;63554;48.940;12.050;2023-02-28T08:19:50;98144.84;;;0.08;60.51
75008;BME280;63554;48.940;12.050;2023-02-28T08:23:53;98146.72;;;0.17;59.49
75008;BME280;63554;48.940;12.050;2023-02-28T08:27:58;98145.38;;;0.32;58.41
75008;BME280;63554;48.940;12.050;2023-02-28T08:32:00;98159.38;;;0.34;59.74
75008;BME280;63554;48.940;12.050;2023-02-28T08:36:06;98149.53;;;0.66;58.28
75008;BME280;63554;48.940;12.050;2023-02-28T08:40:10;98151.34;;;0.65;58.17
75008;BME280;63554;48.940;12.050;2023-02-28T08:44:15;98157.97;;;0.81;57.91
75008;BME280;63554;48.940;12.050;2023-02-28T08:48:18;98154.88;;;0.85;57.80
75008;BME280;63554;48.940;12.050;2023-02-28T08:52:22;98158.41;;;1.25;57.64
75008;BME280;63554;48.940;12.050;2023-02-28T08:56:25;98168.78;;;1.18;56.83
75008;BME280;63554;48.940;12.050;2023-02-28T09:00:28;98161.06;;;1.34;56.78
75008;BME280;63554;48.940;12.050;2023-02-28T09:04:30;98155.84;;;1.43;55.74
75008;BME280;63554;48.940;12.050;2023-02-28T09:08:34;98155.16;;;1.41;55.88
75008;BME280;63554;48.940;12.050;2023-02-28T09:12:37;98164.28;;;1.48;55.03
75008;BME280;63554;48.940;12.050;2023-02-28T09:16:40;98162.13;;;1.81;55.51
75008;BME280;63554;48.940;12.050;2023-02-28T09:20:43;98154.66;;;1.84;54.53
75008;BME280;63554;48.940;12.050;2023-02-28T09:24:47;98149.66;;;2.09;54.04
75008;BME280;63554;48.940;12.050;2023-02-28T09:28:51;98156.03;;;1.98;53.21
75008;BME280;63554;48.940;12.050;2023-02-28T09:32:54;98158.66;;;2.08;53.58
75008;BME280;63554;48.940;12.050;2023-02-28T09:36:57;98163.03;;;2.36;52.56
75008;BME280;63554;48.940;12.050;2023-02-28T09:41:04;98164.75;;;2.37;52.43
75008;BME280;63554;48.940;12.050;2023-02-28T09:45:22;98167.09;;;2.41;53.00
75008;BME280;63554;48.940;12.050;2023-02-28T09:49:33;98162.94;;;2.56;52.85
75008;BME280;63554;48.940;12.050;2023-02-28T09:53:38;98164.38;;;2.50;51.84
75008;BME280;63554;48.940;12.050;2023-02-28T09:57:42;98159.47;;;2.73;53.18
75008;BME280;63554;48.940;12.050;2023-02-28T10:01:52;98163.63;;;3.04;51.84
75008;BME280;63554;48.940;12.050;2023-02-28T10:06:02;98155.09;;;3.18;51.53
75008;BME280;63554;48.940;12.050;2023-02-28T10:10:17;98171.81;;;3.20;52.05
75008;BME280;63554;48.940;12.050;2023-02-28T10:14:26;98168.53;;;3.08;50.68
75008;BME280;63554;48.940;12.050;2023-02-28T10:18:39;98176.16;;;3.21;50.35
75008;BME280;63554;48.940;12.050;2023-02-28T10:22:52;98173.34;;;3.41;50.73
75008;BME280;63554;48.940;12.050;2023-02-28T10:26:59;98168.19;;;3.65;50.92
75008;BME280;63554;48.940;12.050;2023-02-28T10:31:04;98163.53;;;3.67;49.42
75008;BME280;63554;48.940;12.050;2023-02-28T10:35:14;98171.50;;;3.59;49.33
75008;BME280;63554;48.940;12.050;2023-02-28T10:39:41;98170.53;;;3.68;48.24
75008;BME280;63554;48.940;12.050;2023-02-28T10:43:44;98169.41;;;3.97;48.81
75008;BME280;63554;48.940;12.050;2023-02-28T10:47:54;98172.38;;;4.12;48.90
75008;BME280;63554;48.940;12.050;2023-02-28T10:52:00;98176.03;;;4.11;47.94
75008;BME280;63554;48.940;12.050;2023-02-28T10:56:04;98172.09;;;4.58;47.18
75008;BME280;63554;48.940;12.050;2023-02-28T11:00:15;98166.94;;;4.30;47.11
75008;BME280;63554;48.940;12.050;2023-02-28T11:04:33;98164.31;;;4.46;48.79
75008;BME280;63554;48.940;12.050;2023-02-28T11:08:44;98169.25;;;4.59;48.06
75008;BME280;63554;48.940;12.050;2023-02-28T11:12:48;98172.38;;;4.54;46.85
75008;BME280;63554;48.940;12.050;2023-02-28T11:16:55;98171.06;;;4.59;46.27
75008;BME280;63554;48.940;12.050;2023-02-28T11:21:03;98166.63;;;4.75;47.12
75008;BME280;63554;48.940;12.050;2023-02-28T11:25:08;98157.78;;;4.91;47.84
75008;BME280;63554;48.940;12.050;2023-02-28T11:29:18;98158.66;;;5.17;47.31
75008;BME280;63554;48.940;12.050;2023-02-28T11:33:24;98145.25;;;5.17;46.91
75008;BME280;63554;48.940;12.050;2023-02-28T11:37:31;98150.47;;;5.18;45.92
75008;BME280;63554;48.940;12.050;2023-02-28T11:41:47;98156.66;;;5.10;45.71
75008;BME280;63554;48.940;12.050;2023-02-28T11:46:06;98143.28;;;5.43;46.14
75008;BME280;63554;48.940;12.050;2023-02-28T11:50:20;98148.63;;;5.68;43.47
75008;BME280;63554;48.940;12.050;2023-02-28T11:58:57;98147.59;;;6.10;45.52
75008;BME280;63554;48.940;12.050;2023-02-28T12:03:10;98148.28;;;5.87;44.43
75008;BME280;63554;48.940;12.050;2023-02-28T12:07:19;98152.19;;;6.41;43.15
75008;BME280;63554;48.940;12.050;2023-02-28T12:11:35;98139.03;;;6.54;42.73
75008;BME280;63554;48.940;12.050;2023-02-28T12:15:56;98136.06;;;6.41;43.42
75008;BME280;63554;48.940;12.050;2023-02-28T12:20:08;98134.34;;;6.08;43.00
75008;BME280;63554;48.940;12.050;2023-02-28T12:24:32;98141.72;;;6.54;42.91
75008;BME280;63554;48.940;12.050;2023-02-28T12:28:46;98133.75;;;6.38;43.86
75008;BME280;63554;48.940;12.050;2023-02-28T12:32:54;98123.31;;;7.28;43.33
75008;BME280;63554;48.940;12.050;2023-02-28T12:37:02;98119.19;;;6.95;43.89
75008;BME280;63554;48.940;12.050;2023-02-28T12:41:10;98123.34;;;6.97;42.25
75008;BME280;63554;48.940;12.050;2023-02-28T12:45:18;98117.41;;;7.10;43.22
75008;BME280;63554;48.940;12.050;2023-02-28T12:49:25;98110.81;;;7.36;41.61
75008;BME280;63554;48.940;12.050;2023-02-28T12:53:39;98102.88;;;8.10;40.42
75008;BME280;63554;48.940;12.050;2023-02-28T12:57:50;98107.72;;;7.62;41.63
75008;BME280;63554;48.940;12.050;2023-02-28T13:02:09;98099.97;;;7.44;41.61
75008;BME280;63554;48.940;12.050;2023-02-28T13:06:31;98105.16;;;7.68;41.79
75008;BME280;63554;48.940;12.050;2023-02-28T13:10:42;98114.78;;;6.70;42.80
75008;BME280;63554;48.940;12.050;2023-02-28T13:14:45;98114.22;;;6.44;43.58
75008;BME280;63554;48.940;12.050;2023-02-28T13:18:49;98104.22;;;7.15;43.91
75008;BME280;63554;48.940;12.050;2023-02-28T13:22:55;98102.75;;;7.73;42.00
75008;BME280;63554;48.940;12.050;2023-02-28T13:27:32;98100.13;;;7.65;40.59
75008;BME280;63554;48.940;12.050;2023-02-28T13:36:27;98102.09;;;7.71;41.30
75008;BME280;63554;48.940;12.050;2023-02-28T13:40:32;98105.66;;;7.49;41.31
75008;BME280;63554;48.940;12.050;2023-02-28T13:49:18;98104.19;;;8.44;39.44
75008;BME280;63554;48.940;12.050;2023-02-28T13:53:51;98104.06;;;8.07;40.03
75008;BME280;63554;48.940;12.050;2023-02-28T13:58:12;98099.03;;;7.89;40.16
75008;BME280;63554;48.940;12.050;2023-02-28T14:06:39;98101.09;;;7.87;41.31
75008;BME280;63554;48.940;12.050;2023-02-28T14:11:02;98094.72;;;8.33;40.02
75008;BME280;63554;48.940;12.050;2023-02-28T14:15:26;98098.44;;;7.64;40.35
75008;BME280;63554;48.940;12.050;2023-02-28T14:19:31;98103.22;;;7.77;41.44
75008;BME280;63554;48.940;12.050;2023-02-28T14:23:43;98098.09;;;7.67;41.10
75008;BME280;63554;48.940;12.050;2023-02-28T14:27:53;98103.22;;;7.77;41.19
75008;BME280;63554;48.940;12.050;2023-02-28T14:32:02;98106.16;;;7.29;41.69
75008;BME280;63554;48.940;12.050;2023-02-28T14:36:13;98099.81;;;7.45;42.92
75008;BME280;63554;48.940;12.050;2023-02-28T14:40:22;98109.19;;;7.49;41.47
75008;BME280;63554;48.940;12.050;2023-02-28T14:44:30;98101.88;;;7.58;41.94
75008;BME280;63554;48.940;12.050;2023-02-28T14:48:33;98099.75;;;7.30;42.89
75008;BME280;63554;48.940;12.050;2023-02-28T14:52:37;98095.66;;;7.58;42.76
75008;BME280;63554;48.940;12.050;2023-02-28T14:56:40;98103.25;;;7.54;42.63
75008;BME280;63554;48.940;12.050;2023-02-28T15:00:48;98105.31;;;7.06;42.93
75008;BME280;63554;48.940;12.050;2023-02-28T15:04:56;98102.06;;;6.87;43.61
75008;BME280;63554;48.940;12.050;2023-02-28T15:09:11;98099.31;;;6.72;43.94
75008;BME280;63554;48.940;12.050;2023-02-28T15:13:17;98109.38;;;6.39;43.94
75008;BME280;63554;48.940;12.050;2023-02-28T15:17:23;98109.97;;;6.89;43.72
75008;BME280;63554;48.940;12.050;2023-02-28T15:21:29;98115.25;;;6.74;43.70
75008;BME280;63554;48.940;12.050;2023-02-28T15:25:34;98113.88;;;6.47;44.61
75008;BME280;63554;48.940;12.050;2023-02-28T15:29:44;98115.53;;;5.92;46.27
75008;BME280;63554;48.940;12.050;2023-02-28T15:33:54;98115.69;;;4.92;48.51
75008;BME280;63554;48.940;12.050;2023-02-28T15:38:00;98127.22;;;4.25;50.34
75008;BME280;63554;48.940;12.050;2023-02-28T15:42:10;98128.53;;;3.87;52.38
75008;BME280;63554;48.940;12.050;2023-02-28T15:46:13;98118.97;;;3.84;52.16
75008;BME280;63554;48.940;12.050;2023-02-28T15:50:19;98114.41;;;3.76;52.69
75008;BME280;63554;48.940;12.050;2023-02-28T15:54:23;98124.78;;;3.80;52.66
75008;BME280;63554;48.940;12.050;2023-02-28T15:58:29;98112.63;;;3.59;52.94
75008;BME280;63554;48.940;12.050;2023-02-28T16:02:34;98104.09;;;3.38;53.40
75008;BME280;63554;48.940;12.050;2023-02-28T16:06:40;98112.38;;;3.26;54.21
75008;BME280;63554;48.940;12.050;2023-02-28T16:10:43;98121.03;;;3.02;54.05
75008;BME280;63554;48.940;12.050;2023-02-28T16:14:47;98112.81;;;2.68;55.60
75008;BME280;63554;48.940;12.050;2023-02-28T16:18:53;98121.53;;;2.70;55.65
75008;BME280;63554;48.940;12.050;2023-02-28T16:22:57;98123.28;;;2.61;56.38
75008;BME280;63554;48.940;12.050;2023-02-28T16:27:02;98126.06;;;2.42;56.51
75008;BME280;63554;48.940;12.050;2023-02-28T16:31:06;98134.25;;;2.30;57.27
75008;BME280;63554;48.940;12.050;2023-02-28T16:35:10;98142.69;;;2.35;57.11
75008;BME280;63554;48.940;12.050;2023-02-28T16:39:16;98136.44;;;2.17;57.91
75008;BME280;63554;48.940;12.050;2023-02-28T16:43:23;98145.75;;;2.03;58.38
75008;BME280;63554;48.940;12.050;2023-02-28T16:47:27;98147.72;;;2.01;58.50
75008;BME280;63554;48.940;12.050;2023-02-28T16:51:29;98149.28;;;1.94;58.52
75008;BME280;63554;48.940;12.050;2023-02-28T16:55:37;98159.28;;;1.82;59.22
75008;BME280;63554;48.940;12.050;2023-02-28T16:59:40;98165.50;;;1.83;60.61
75008;BME280;63554;48.940;12.050;2023-02-28T17:03:43;98169.56;;;1.87;59.40
75008;BME280;63554;48.940;12.050;2023-02-28T17:07:46;98171.38;;;1.86;59.24
75008;BME280;63554;48.940;12.050;2023-02-28T17:11:50;98177.13;;;1.91;59.14
75008;BME280;63554;48.940;12.050;2023-02-28T17:15:54;98170.50;;;1.95;59.28
75008;BME280;63554;48.940;12.050;2023-02-28T17:19:57;98176.44;;;1.80;59.66
75008;BME280;63554;48.940;12.050;2023-02-28T17:24:00;98178.16;;;1.71;59.85
75008;BME280;63554;48.940;12.050;2023-02-28T17:28:04;98196.53;;;1.64;60.64
75008;BME280;63554;48.940;12.050;2023-02-28T17:32:06;98192.78;;;1.47;61.07
75008;BME280;63554;48.940;12.050;2023-02-28T17:36:22;98199.22;;;1.45;61.53
75008;BME280;63554;48.940;12.050;2023-02-28T17:40:25;98197.56;;;1.44;61.04
75008;BME280;63554;48.940;12.050;2023-02-28T17:44:29;98205.00;;;1.40;62.24
75008;BME280;63554;48.940;12.050;2023-02-28T17:48:33;98200.63;;;1.39;62.10
75008;BME280;63554;48.940;12.050;2023-02-28T17:52:37;98200.78;;;1.28;62.61
75008;BME280;63554;48.940;12.050;2023-02-28T17:56:40;98206.53;;;1.33;62.29
75008;BME280;63554;48.940;12.050;2023-02-28T18:00:45;98209.88;;;1.25;62.70
75008;BME280;63554;48.940;12.050;2023-02-28T18:04:49;98213.25;;;1.08;63.28
75008;BME280;63554;48.940;12.050;2023-02-28T18:08:51;98205.41;;;1.06;63.50
75008;BME280;63554;48.940;12.050;2023-02-28T18:12:54;98208.34;;;1.03;63.75
75008;BME280;63554;48.940;12.050;2023-02-28T18:16:58;98206.66;;;1.02;64.24
75008;BME280;63554;48.940;12.050;2023-02-28T18:21:03;98212.94;;;0.91;63.94
75008;BME280;63554;48.940;12.050;2023-02-28T18:25:08;98198.22;;;0.87;65.08
75008;BME280;63554;48.940;12.050;2023-02-28T18:29:16;98204.22;;;0.79;64.74
75008;BME280;63554;48.940;12.050;2023-02-28T18:33:20;98203.78;;;0.74;64.47
75008;BME280;63554;48.940;12.050;2023-02-28T18:37:23;98207.84;;;0.59;65.61
75008;BME280;63554;48.940;12.050;2023-02-28T18:41:26;98201.34;;;0.52;65.62
75008;BME280;63554;48.940;12.050;2023-02-28T18:45:29;98207.53;;;0.62;65.34
75008;BME280;63554;48.940;12.050;2023-02-28T18:49:33;98208.94;;;0.56;65.35
75008;BME280;63554;48.940;12.050;2023-02-28T18:53:39;98211.56;;;0.47;65.74
75008;BME280;63554;48.940;12.050;2023-02-28T18:57:42;98203.72;;;0.45;66.05
75008;BME280;63554;48.940;12.050;2023-02-28T19:01:45;98202.28;;;0.41;66.22
75008;BME280;63554;48.940;12.050;2023-02-28T19:05:53;98197.25;;;0.38;66.58
75008;BME280;63554;48.940;12.050;2023-02-28T19:09:56;98188.94;;;0.31;67.01
75008;BME280;63554;48.940;12.050;2023-02-28T19:13:58;98201.84;;;0.36;67.12
75008;BME280;63554;48.940;12.050;2023-02-28T19:18:01;98206.38;;;0.45;66.75
75008;BME280;63554;48.940;12.050;2023-02-28T19:22:05;98199.63;;;0.41;66.57
75008;BME280;63554;48.940;12.050;2023-02-28T19:26:10;98205.78;;;0.32;67.40
75008;BME280;63554;48.940;12.050;2023-02-28T19:30:14;98202.47;;;0.18;67.29
75008;BME280;63554;48.940;12.050;2023-02-28T19:34:17;98216.31;;;0.12;67.69
75008;BME280;63554;48.940;12.050;2023-02-28T19:38:21;98206.63;;;0.11;68.05
75008;BME280;63554;48.940;12.050;2023-02-28T19:42:24;98204.97;;;0.10;67.69
75008;BME280;63554;48.940;12.050;2023-02-28T19:46:30;98209.84;;;0.05;67.94
75008;BME280;63554;48.940;12.050;2023-02-28T19:50:33;98203.09;;;0.01;67.92
75008;BME280;63554;48.940;12.050;2023-02-28T19:54:39;98208.53;;;-0.01;68.26
75008;BME280;63554;48.940;12.050;2023-02-28T19:58:41;98208.59;;;0.09;67.55
75008;BME280;63554;48.940;12.050;2023-02-28T20:02:44;98199.25;;;0.15;67.29
75008;BME280;63554;48.940;12.050;2023-02-28T20:06:47;98205.03;;;0.20;67.05
75008;BME280;63554;48.940;12.050;2023-02-28T20:10:52;98199.38;;;0.13;67.44
75008;BME280;63554;48.940;12.050;2023-02-28T20:14:56;98200.34;;;0.12;67.28
75008;BME280;63554;48.940;12.050;2023-02-28T20:19:00;98197.00;;;-0.11;67.68
75008;BME280;63554;48.940;12.050;2023-02-28T20:23:03;98208.19;;;-0.17;68.29
75008;BME280;63554;48.940;12.050;2023-02-28T20:27:07;98197.34;;;-0.25;68.69
75008;BME280;63554;48.940;12.050;2023-02-28T20:31:11;98193.25;;;-0.50;69.75
75008;BME280;63554;48.940;12.050;2023-02-28T20:35:14;98192.84;;;-0.67;70.44
75008;BME280;63554;48.940;12.050;2023-02-28T20:39:17;98198.22;;;-0.78;71.36
75008;BME280;63554;48.940;12.050;2023-02-28T20:43:22;98206.31;;;-0.80;70.63
75008;BME280;63554;48.940;12.050;2023-02-28T20:47:24;98202.47;;;-0.87;71.00
75008;BME280;63554;48.940;12.050;2023-02-28T20:51:27;98199.78;;;-0.75;70.75
75008;BME280;63554;48.940;12.050;2023-02-28T20:55:30;98206.19;;;-0.78;70.58
75008;BME280;63554;48.940;12.050;2023-02-28T20:59:35;98201.84;;;-0.79;70.69
75008;BME280;63554;48.940;12.050;2023-02-28T21:03:39;98201.94;;;-0.69;70.64
75008;BME280;63554;48.940;12.050;2023-02-28T21:07:42;98203.63;;;-0.68;70.90
75008;BME280;63554;48.940;12.050;2023-02-28T21:11:45;98199.97;;;-0.67;70.60
75008;BME280;63554;48.940;12.050;2023-02-28T21:15:50;98191.97;;;-0.56;70.71
75008;BME280;63554;48.940;12.050;2023-02-28T21:19:52;98183.44;;;-0.71;70.48
75008;BME280;63554;48.940;12.050;2023-02-28T21:23:56;98194.78;;;-0.69;70.34
75008;BME280;63554;48.940;12.050;2023-02-28T21:27:59;98187.41;;;-0.65;70.74
75008;BME280;63554;48.940;12.050;2023-02-28T21:32:03;98187.75;;;-0.58;70.72
75008;BME280;63554;48.940;12.050;2023-02-28T21:36:10;98184.69;;;-0.54;70.46
75008;BME280;63554;48.940;12.050;2023-02-28T21:40:13;98182.16;;;-0.55;70.39
75008;BME280;63554;48.940;12.050;2023-02-28T21:44:16;98190.59;;;-0.50;70.62
75008;BME280;63554;48.940;12.050;2023-02-28T21:48:21;98195.53;;;-0.46;69.93
75008;BME280;63554;48.940;12.050;2023-02-28T21:52:23;98197.09;;;-0.43;70.17